Terminal Aerodrome Forecast
Issued by NWS

Home | Current Version | Previous Version | Text Only | Print | Product List | Glossary Off
Versions: 1 2 3 4 5 6 7 8 9 10 11 12 13 14 15 16 17 18 19

000
FTUS43 KICT 251745
TAFRSL
TAF
KRSL 251745Z 2518/2618 18016G25KT P6SM SCT250
     FM252200 19014KT P6SM SCT250
     FM260000 19007KT P6SM SCT250
     FM260500 33013G19KT P6SM SCT009 SCT015
     FM260700 34014G20KT P6SM SCT009 BKN015=

USA.gov is the U.S. government's official web portal to all federal, state and local government web resources and services.